Time;durP1;ratioP1;P1;durP2;ratioP2;P2;SDS_P1;SDS_P2;PMS_P1;PMS_P2;Temp;Humidity;BMP_temperature;BMP_pressure;BME280_temperature;BME280_humidity;BME280_pressure;Samples;Min_cycle;Max_cycle;Signal;HPM_P1;HPM_P2
2023/01/07 00:01:42;;;;;;;0.88;0.88;;;8.20;99.90;;;;;;4993190;28;20042;-84
2023/01/07 00:04:11;;;;;;;0.73;0.73;;;8.20;99.90;;;;;;4998137;28;20034;-87
2023/01/07 00:06:39;;;;;;;0.73;0.73;;;8.30;99.90;;;;;;4995768;28;20038;-87
2023/01/07 00:09:06;;;;;;;0.70;0.70;;;8.40;99.90;;;;;;5002892;28;20022;-87
2023/01/07 00:11:34;;;;;;;1.30;1.30;;;8.40;99.90;;;;;;4999795;28;20553;-88
2023/01/07 00:14:08;;;;;;;0.70;0.70;;;8.50;99.90;;;;;;4999836;28;20065;-88
2023/01/07 00:16:35;;;;;;;0.50;0.50;;;8.50;99.90;;;;;;4998305;28;20809;-88
2023/01/07 00:19:03;;;;;;;0.75;0.75;;;8.60;99.90;;;;;;4996685;28;20388;-88
2023/01/07 00:21:29;;;;;;;0.43;0.43;;;8.60;99.90;;;;;;4994384;28;20042;-87
2023/01/07 00:23:56;;;;;;;0.90;0.85;;;8.70;99.90;;;;;;4984283;28;20034;-87
2023/01/07 00:26:25;;;;;;;1.52;1.17;;;8.70;99.90;;;;;;4970063;28;20038;-88
2023/01/07 00:28:52;;;;;;;0.40;0.40;;;8.80;99.90;;;;;;4993303;28;20101;-87
2023/01/07 00:31:25;;;;;;;0.50;0.50;;;8.80;99.90;;;;;;4991257;28;20042;-86
2023/01/07 00:36:43;;;;;;;0.73;0.73;;;8.80;99.90;;;;;;4994733;28;20089;-88
2023/01/07 00:39:13;;;;;;;4.30;2.85;;;8.90;99.90;;;;;;4994574;28;20066;-87
2023/01/07 00:41:39;;;;;;;2.38;2.25;;;8.90;99.90;;;;;;4978530;28;20042;-87
2023/01/07 00:44:06;;;;;;;1.02;0.90;;;8.90;99.90;;;;;;4997606;28;20065;-88
2023/01/07 00:46:31;;;;;;;0.50;0.50;;;9.00;99.90;;;;;;5010344;28;20046;-87
2023/01/07 00:48:57;;;;;;;1.17;1.17;;;9.00;99.90;;;;;;5004877;28;20161;-88
2023/01/07 00:51:24;;;;;;;1.10;1.10;;;9.10;99.90;;;;;;4986133;28;20053;-88
2023/01/07 00:53:50;;;;;;;0.95;0.95;;;9.10;99.90;;;;;;5013125;28;20315;-89
2023/01/07 00:56:20;;;;;;;0.82;0.82;;;9.20;99.90;;;;;;4994525;28;20046;-88
2023/01/07 00:58:46;;;;;;;0.75;0.75;;;9.20;99.90;;;;;;4981846;28;20070;-86
2023/01/07 01:01:12;;;;;;;0.75;0.70;;;9.30;99.90;;;;;;4979088;28;20038;-89
2023/01/07 01:03:38;;;;;;;0.73;0.73;;;9.30;99.90;;;;;;4993308;28;20046;-87
2023/01/07 01:06:12;;;;;;;1.73;1.63;;;9.30;99.90;;;;;;4996554;28;20069;-90
2023/01/07 01:08:43;;;;;;;0.50;0.50;;;9.30;99.90;;;;;;4995721;28;20052;-87
2023/01/07 01:11:13;;;;;;;0.70;0.70;;;9.40;99.90;;;;;;4995349;28;20042;-89
2023/01/07 01:13:39;;;;;;;0.75;0.75;;;9.40;99.90;;;;;;5005521;28;20053;-88
2023/01/07 01:16:17;;;;;;;1.33;1.23;;;9.50;99.90;;;;;;4994056;28;20053;-89
2023/01/07 01:18:45;;;;;;;1.58;1.50;;;9.50;99.90;;;;;;4977001;28;20035;-89
2023/01/07 01:21:13;;;;;;;1.73;1.65;;;9.50;99.90;;;;;;5014653;28;20053;-88
2023/01/07 01:23:41;;;;;;;1.27;1.17;;;9.50;99.90;;;;;;5016612;28;20092;-91
2023/01/07 01:26:12;;;;;;;0.40;0.40;;;9.60;99.90;;;;;;4981980;28;20030;-88
2023/01/07 01:28:38;;;;;;;0.47;0.47;;;9.60;99.90;;;;;;4995498;28;20046;-88
2023/01/07 01:31:07;;;;;;;0.85;0.85;;;9.60;99.90;;;;;;4981840;28;20056;-87
2023/01/07 01:33:32;;;;;;;0.82;0.73;;;9.60;99.90;;;;;;4996382;28;20038;-88
2023/01/07 01:36:01;;;;;;;1.40;0.70;;;9.70;99.90;;;;;;4980472;28;20030;-89
2023/01/07 01:38:29;;;;;;;2.33;1.58;;;9.70;99.90;;;;;;4994567;28;20070;-89
2023/01/07 01:40:57;;;;;;;0.80;0.80;;;9.70;99.90;;;;;;4997632;28;20092;-88
2023/01/07 01:43:33;;;;;;;2.25;2.15;;;9.70;99.90;;;;;;4993161;28;20042;-88
2023/01/07 01:46:21;;;;;;;1.63;1.52;;;9.70;99.90;;;;;;4993478;28;20035;-87
2023/01/07 01:49:02;;;;;;;1.77;1.67;;;9.70;99.90;;;;;;4993154;28;20074;-88
2023/01/07 01:51:35;;;;;;;1.42;0.98;;;9.80;99.90;;;;;;4996719;28;20074;-87
2023/01/07 01:54:09;;;;;;;0.50;0.50;;;9.80;99.90;;;;;;5008757;28;20073;-88
2023/01/07 01:56:39;;;;;;;0.60;0.60;;;9.80;99.90;;;;;;4991293;28;20050;-89
2023/01/07 01:59:13;;;;;;;0.82;0.82;;;9.80;99.90;;;;;;5010602;28;20042;-87
2023/01/07 02:01:39;;;;;;;0.60;0.60;;;9.80;99.90;;;;;;5008228;28;20038;-87
2023/01/07 02:04:08;;;;;;;0.40;0.40;;;9.90;99.90;;;;;;4996087;28;20052;-85
2023/01/07 02:06:40;;;;;;;1.05;1.05;;;9.90;99.90;;;;;;4991936;28;20034;-87
2023/01/07 02:09:06;;;;;;;0.65;0.65;;;9.90;99.90;;;;;;5005545;28;20177;-88
2023/01/07 02:11:34;;;;;;;0.88;0.88;;;9.90;99.90;;;;;;4998803;28;20105;-88
2023/01/07 02:14:30;;;;;;;0.93;0.93;;;10.00;99.90;;;;;;4992475;28;20133;-89
2023/01/07 02:17:12;;;;;;;0.80;0.80;;;10.10;99.90;;;;;;4994149;28;20030;-86
2023/01/07 02:20:08;;;;;;;0.93;0.93;;;10.20;99.90;;;;;;4991354;28;20050;-86
2023/01/07 02:23:01;;;;;;;1.55;1.40;;;10.30;99.90;;;;;;4994461;28;20395;-87
2023/01/07 02:26:02;;;;;;;1.63;0.90;;;10.20;99.90;;;;;;4997047;28;20034;-85
2023/01/07 02:28:52;;;;;;;0.70;0.70;;;10.20;99.90;;;;;;4995379;28;20057;-87
2023/01/07 02:31:53;;;;;;;1.15;1.15;;;10.00;99.90;;;;;;4996903;28;20061;-88
2023/01/07 02:34:30;;;;;;;0.50;0.50;;;10.10;99.90;;;;;;5010379;28;20034;-88
2023/01/07 02:36:58;;;;;;;;;;;10.10;99.90;;;;;;4995805;28;20083;-87
2023/01/07 02:39:43;;;;;;;0.57;0.57;;;10.10;99.90;;;;;;4993728;28;19921;-87
2023/01/07 02:42:11;;;;;;;0.98;0.98;;;10.10;99.90;;;;;;4995977;28;20074;-85
2023/01/07 02:44:48;;;;;;;0.63;0.63;;;10.10;99.90;;;;;;4978461;28;20042;-87
2023/01/07 02:47:30;;;;;;;0.30;0.30;;;10.10;99.90;;;;;;4993162;28;20039;-85
2023/01/07 02:49:56;;;;;;;0.57;0.57;;;10.20;99.90;;;;;;4991860;28;20160;-88
2023/01/07 02:52:25;;;;;;;1.45;1.35;;;10.20;99.90;;;;;;4962553;28;20072;-87
2023/01/07 02:54:57;;;;;;;1.25;1.23;;;10.20;99.90;;;;;;4991854;28;20102;-85
2023/01/07 02:57:32;;;;;;;0.90;0.88;;;10.20;99.90;;;;;;4994976;28;20046;-86
2023/01/07 03:00:09;;;;;;;2.10;2.00;;;10.20;99.90;;;;;;4993475;28;20041;-88
2023/01/07 03:02:41;;;;;;;2.17;0.77;;;10.20;99.90;;;;;;4978145;28;20046;-90
2023/01/07 03:05:28;;;;;;;1.27;1.13;;;10.30;99.90;;;;;;4991210;28;20041;-89
2023/01/07 03:08:22;;;;;;;1.00;0.90;;;10.20;99.90;;;;;;4992827;28;20038;-89
2023/01/07 03:11:03;;;;;;;0.75;0.75;;;10.20;99.90;;;;;;4973049;28;20049;-89
2023/01/07 03:13:57;;;;;;;0.52;0.52;;;10.30;99.90;;;;;;4995129;28;20202;-87
2023/01/07 03:16:32;;;;;;;1.05;0.95;;;10.30;99.90;;;;;;4992718;28;20054;-88
2023/01/07 03:19:08;;;;;;;1.33;1.20;;;10.30;99.90;;;;;;4992770;28;20042;-87
2023/01/07 03:21:36;;;;;;;1.70;1.15;;;10.30;99.90;;;;;;4974466;28;20046;-88
2023/01/07 03:24:04;;;;;;;2.35;1.30;;;10.30;99.90;;;;;;4991739;28;20037;-87
2023/01/07 03:26:39;;;;;;;0.30;0.30;;;10.40;99.90;;;;;;4996355;28;20045;-88
2023/01/07 03:29:08;;;;;;;1.60;1.50;;;10.40;99.90;;;;;;4977032;28;20077;-87
2023/01/07 03:31:39;;;;;;;1.45;1.35;;;10.40;99.90;;;;;;4993247;28;20054;-89
2023/01/07 03:34:09;;;;;;;1.27;0.65;;;10.40;99.90;;;;;;4992874;28;20050;-87
2023/01/07 03:36:51;;;;;;;1.08;0.90;;;10.40;99.90;;;;;;4990506;28;20073;-89
2023/01/07 03:39:21;;;;;;;1.05;0.70;;;10.40;99.90;;;;;;4996582;28;20121;-87
2023/01/07 03:44:34;;;;;;;0.55;0.55;;;10.40;99.90;;;;;;4997141;28;20045;-89
2023/01/07 03:47:01;;;;;;;1.38;0.93;;;10.40;99.90;;;;;;4999048;28;20483;-89
2023/01/07 03:49:27;;;;;;;1.77;1.75;;;10.40;99.90;;;;;;4995364;28;20051;-87
2023/01/07 03:51:53;;;;;;;0.93;0.93;;;10.40;99.90;;;;;;4996178;28;20483;-86
2023/01/07 03:54:22;;;;;;;0.65;0.65;;;10.50;99.90;;;;;;4994991;28;20052;-88
2023/01/07 03:56:48;;;;;;;1.45;0.90;;;10.40;99.90;;;;;;4978029;28;20053;-88
2023/01/07 03:59:14;;;;;;;2.33;0.90;;;10.50;99.90;;;;;;4976917;28;20046;-86
2023/01/07 04:01:40;;;;;;;0.80;0.80;;;10.50;99.90;;;;;;4976812;28;20042;-87
2023/01/07 04:04:05;;;;;;;7.53;2.72;;;10.50;99.90;;;;;;4993208;28;20042;-87
2023/01/07 04:06:31;;;;;;;;;;;10.50;99.90;;;;;;4998080;28;20039;-86
2023/01/07 04:08:57;;;;;;;0.88;0.88;;;10.50;99.90;;;;;;4994050;28;19925;-87
2023/01/07 04:11:23;;;;;;;0.80;0.80;;;10.50;99.90;;;;;;4991924;28;20050;-86
2023/01/07 04:13:49;;;;;;;0.40;0.40;;;10.50;99.90;;;;;;4992261;28;20125;-85
2023/01/07 04:16:14;;;;;;;1.80;1.70;;;10.50;99.90;;;;;;4971390;28;20186;-84
2023/01/07 04:18:40;;;;;;;0.52;0.52;;;10.50;99.90;;;;;;4991949;28;20065;-86
2023/01/07 04:21:06;;;;;;;2.20;2.10;;;10.50;99.90;;;;;;4991074;28;20085;-87
2023/01/07 04:23:31;;;;;;;3.22;2.15;;;10.50;99.90;;;;;;4992909;28;20038;-87
2023/01/07 04:25:57;;;;;;;1.95;1.10;;;10.50;99.90;;;;;;4992373;28;20238;-85
2023/01/07 04:28:23;;;;;;;0.70;0.70;;;10.50;99.90;;;;;;4993250;28;20057;-88
2023/01/07 04:30:49;;;;;;;0.50;0.50;;;10.50;99.90;;;;;;4993054;28;20519;-88
2023/01/07 04:33:14;;;;;;;2.00;1.80;;;10.40;99.90;;;;;;4975882;28;20050;-85
2023/01/07 04:35:40;;;;;;;1.05;1.05;;;10.40;99.90;;;;;;4975642;28;20065;-85
2023/01/07 04:38:06;;;;;;;1.15;1.13;;;10.50;99.90;;;;;;4991964;28;20057;-87
2023/01/07 04:40:32;;;;;;;;;;;10.40;99.90;;;;;;4995288;28;20432;-85
2023/01/07 04:42:58;;;;;;;1.48;1.42;;;10.40;99.90;;;;;;4992118;28;19924;-87
2023/01/07 04:45:23;;;;;;;0.88;0.88;;;10.40;99.90;;;;;;4974819;28;20084;-87
2023/01/07 04:47:49;;;;;;;2.83;2.67;;;10.40;99.90;;;;;;4991086;28;20102;-85
2023/01/07 04:50:15;;;;;;;0.50;0.50;;;10.40;99.90;;;;;;4992274;28;20455;-88
2023/01/07 04:52:42;;;;;;;1.45;1.38;;;10.40;99.90;;;;;;4990948;28;20061;-86
2023/01/07 04:55:09;;;;;;;0.65;0.60;;;10.40;99.90;;;;;;4944750;28;20415;-86
2023/01/07 04:57:36;;;;;;;0.65;0.65;;;10.50;99.90;;;;;;4960916;28;20431;-87
2023/01/07 05:00:04;;;;;;;2.60;1.30;;;10.40;99.90;;;;;;4991070;28;20049;-86
2023/01/07 05:02:30;;;;;;;1.45;1.35;;;10.30;99.90;;;;;;4992572;28;20401;-87
2023/01/07 05:04:56;;;;;;;0.57;0.57;;;10.40;99.90;;;;;;4977156;28;20038;-88
2023/01/07 05:07:21;;;;;;;1.02;0.75;;;10.30;99.90;;;;;;4994509;28;20045;-89
2023/01/07 05:09:47;;;;;;;0.77;0.77;;;10.30;99.90;;;;;;4993250;28;20046;-89
2023/01/07 05:12:13;;;;;;;1.77;1.40;;;10.40;99.90;;;;;;4977640;28;20108;-86
2023/01/07 05:14:38;;;;;;;0.55;0.55;;;10.40;99.90;;;;;;4977755;28;20049;-88
2023/01/07 05:17:04;;;;;;;1.88;1.77;;;10.30;99.90;;;;;;4993327;28;20077;-88
2023/01/07 05:19:30;;;;;;;0.85;0.85;;;10.30;99.90;;;;;;4962745;28;20047;-88
2023/01/07 05:21:55;;;;;;;5.00;2.22;;;10.30;99.90;;;;;;4998127;28;20192;-88
2023/01/07 05:24:21;;;;;;;2.88;1.33;;;10.30;99.90;;;;;;4989949;28;20034;-87
2023/01/07 05:26:47;;;;;;;1.60;1.50;;;10.30;99.90;;;;;;4990683;28;20042;-87
2023/01/07 05:29:13;;;;;;;0.73;0.73;;;10.30;99.90;;;;;;4991094;28;20058;-87
2023/01/07 05:31:39;;;;;;;1.08;1.08;;;10.20;99.90;;;;;;4992758;28;20140;-90
2023/01/07 05:34:05;;;;;;;1.40;1.33;;;10.20;99.90;;;;;;4991861;28;20054;-88
2023/01/07 05:36:31;;;;;;;1.17;0.90;;;10.20;99.90;;;;;;4976967;28;20519;-88
2023/01/07 05:39:00;;;;;;;0.93;0.90;;;10.20;99.90;;;;;;4992835;28;20045;-88
2023/01/07 05:41:25;;;;;;;1.52;1.35;;;10.20;99.90;;;;;;4996915;28;20133;-88
2023/01/07 05:43:51;;;;;;;4.10;0.90;;;10.20;99.90;;;;;;4993286;28;20070;-88
2023/01/07 05:46:18;;;;;;;0.65;0.65;;;10.20;99.90;;;;;;4981183;28;20038;-87
2023/01/07 05:48:44;;;;;;;0.52;0.52;;;10.20;99.90;;;;;;4997961;28;20041;-87
2023/01/07 05:51:09;;;;;;;1.30;1.20;;;10.30;99.90;;;;;;4995561;28;20042;-86
2023/01/07 05:53:35;;;;;;;1.02;1.02;;;10.20;99.90;;;;;;4978877;28;20030;-86
2023/01/07 05:56:01;;;;;;;0.80;0.65;;;10.20;99.90;;;;;;4989022;28;20034;-86
2023/01/07 05:58:27;;;;;;;0.75;0.75;;;10.20;99.90;;;;;;4992300;28;21442;-87
2023/01/07 06:00:53;;;;;;;0.45;0.45;;;10.20;99.90;;;;;;4996199;28;20096;-88
2023/01/07 06:03:20;;;;;;;;;;;10.20;99.90;;;;;;4977476;28;20088;-87
2023/01/07 06:05:46;;;;;;;0.73;0.50;;;10.20;99.90;;;;;;4983915;28;19921;-85
2023/01/07 06:08:13;;;;;;;1.20;1.20;;;10.20;99.90;;;;;;4995830;28;20097;-86
2023/01/07 06:10:39;;;;;;;2.95;1.95;;;10.30;99.90;;;;;;4996797;28;20050;-84
2023/01/07 06:13:05;;;;;;;1.15;1.10;;;10.30;99.90;;;;;;5005225;28;20369;-84
2023/01/07 06:15:30;;;;;;;1.05;1.02;;;10.20;99.90;;;;;;5004193;28;20077;-84
2023/01/07 06:17:59;;;;;;;0.50;0.50;;;10.20;99.90;;;;;;5009260;28;20049;-85
2023/01/07 06:20:25;;;;;;;0.93;0.93;;;10.20;99.90;;;;;;5005306;28;20051;-87
2023/01/07 06:22:50;;;;;;;6.10;3.35;;;10.20;99.90;;;;;;4980004;28;20507;-88
2023/01/07 06:25:16;;;;;;;1.42;1.35;;;10.20;99.90;;;;;;4997128;28;20038;-87
2023/01/07 06:27:42;;;;;;;0.65;0.65;;;10.20;99.90;;;;;;4988475;28;20100;-86
2023/01/07 06:30:10;;;;;;;0.70;0.70;;;10.10;99.90;;;;;;4982785;28;20511;-85
2023/01/07 06:32:43;;;;;;;1.08;0.98;;;10.10;99.90;;;;;;5008894;28;20055;-87
2023/01/07 06:35:10;;;;;;;0.60;0.60;;;10.10;99.90;;;;;;4992768;28;20385;-86
2023/01/07 06:37:36;;;;;;;0.52;0.47;;;10.10;99.90;;;;;;4995208;28;20073;-87
2023/01/07 06:40:03;;;;;;;0.50;0.50;;;10.10;99.90;;;;;;4996408;28;20038;-86
2023/01/07 06:42:28;;;;;;;;;;;10.00;99.90;;;;;;4982289;28;20034;-86
2023/01/07 06:44:54;;;;;;;0.70;0.70;;;10.00;99.90;;;;;;4981683;28;19921;-86
2023/01/07 06:47:20;;;;;;;0.40;0.40;;;10.00;99.90;;;;;;4980078;28;20681;-87
2023/01/07 06:49:45;;;;;;;0.98;0.98;;;10.00;99.90;;;;;;4977667;28;20046;-89
2023/01/07 06:52:11;;;;;;;1.52;0.95;;;10.00;99.90;;;;;;4980216;28;20038;-88
2023/01/07 06:54:37;;;;;;;2.22;2.05;;;10.00;99.90;;;;;;4982268;28;20049;-89
2023/01/07 06:57:03;;;;;;;0.55;0.55;;;10.00;99.90;;;;;;4993154;28;20070;-86
2023/01/07 06:59:28;;;;;;;0.50;0.50;;;9.90;99.90;;;;;;4996317;28;20048;-86
2023/01/07 07:01:54;;;;;;;0.43;0.43;;;9.90;99.90;;;;;;4993544;28;20077;-88
2023/01/07 07:04:20;;;;;;;0.82;0.82;;;9.80;99.90;;;;;;4977892;28;20038;-87
2023/01/07 07:06:46;;;;;;;0.52;0.52;;;9.80;99.90;;;;;;4977743;28;20120;-87
2023/01/07 07:09:12;;;;;;;0.47;0.47;;;9.80;99.90;;;;;;4991877;28;20353;-89
2023/01/07 07:11:37;;;;;;;0.73;0.63;;;9.80;99.90;;;;;;4959318;28;20049;-85
2023/01/07 07:14:03;;;;;;;0.95;0.73;;;9.80;99.90;;;;;;4979746;28;20506;-84
2023/01/07 07:16:30;;;;;;;1.63;1.52;;;9.80;99.90;;;;;;4971494;28;20053;-86
2023/01/07 07:18:56;;;;;;;0.50;0.50;;;9.80;99.90;;;;;;4976566;28;20042;-86
2023/01/07 07:21:21;;;;;;;0.60;0.60;;;9.80;99.90;;;;;;4992366;28;20046;-87
2023/01/07 07:23:47;;;;;;;0.73;0.73;;;9.80;99.90;;;;;;4973292;28;20428;-87
2023/01/07 07:26:13;;;;;;;0.88;0.80;;;9.80;99.90;;;;;;4987517;28;20043;-85
2023/01/07 07:28:41;;;;;;;0.55;0.55;;;9.80;99.90;;;;;;4977545;28;20499;-88
2023/01/07 07:31:08;;;;;;;0.60;0.60;;;9.80;99.90;;;;;;4988432;28;20073;-87
2023/01/07 07:33:34;;;;;;;0.35;0.35;;;9.80;99.90;;;;;;4994340;28;20131;-86
2023/01/07 07:35:59;;;;;;;0.40;0.40;;;9.90;99.90;;;;;;4979128;28;20073;-86
2023/01/07 07:38:25;;;;;;;0.50;0.50;;;9.90;99.90;;;;;;4991587;28;20125;-87
2023/01/07 07:40:51;;;;;;;1.13;1.02;;;9.90;99.90;;;;;;4974860;28;20046;-89
2023/01/07 07:43:16;;;;;;;0.50;0.50;;;9.90;99.90;;;;;;4986216;28;20042;-87
2023/01/07 07:45:42;;;;;;;1.15;1.05;;;9.90;99.90;;;;;;4993129;28;20058;-88
2023/01/07 07:48:10;;;;;;;0.80;0.80;;;9.90;99.90;;;;;;4974575;28;20088;-87
2023/01/07 07:50:36;;;;;;;1.30;1.17;;;9.90;99.90;;;;;;4989873;28;20046;-87
2023/01/07 07:53:02;;;;;;;0.22;0.22;;;9.90;99.90;;;;;;4988349;28;20042;-86
2023/01/07 07:55:28;;;;;;;0.82;0.80;;;9.90;99.90;;;;;;4991230;28;20089;-87
2023/01/07 07:57:55;;;;;;;0.30;0.30;;;9.90;99.90;;;;;;4975708;28;20046;-87
2023/01/07 08:00:21;;;;;;;0.98;0.93;;;9.80;99.90;;;;;;5007430;28;20145;-87
2023/01/07 08:02:47;;;;;;;0.60;0.60;;;9.80;99.90;;;;;;4989796;28;20101;-86
2023/01/07 08:05:12;;;;;;;1.08;1.08;;;9.80;99.90;;;;;;4959349;28;20140;-88
2023/01/07 08:07:38;;;;;;;0.60;0.60;;;9.80;99.90;;;;;;4993619;28;20154;-89
2023/01/07 08:10:05;;;;;;;1.10;1.10;;;9.80;99.90;;;;;;4987997;28;20750;-88
2023/01/07 08:12:31;;;;;;;0.98;0.95;;;9.80;99.90;;;;;;4993330;28;20125;-87
2023/01/07 08:14:57;;;;;;;1.13;1.02;;;9.80;99.90;;;;;;4990514;28;20050;-88
2023/01/07 08:17:24;;;;;;;0.65;0.65;;;9.80;99.90;;;;;;4992226;28;20046;-88
2023/01/07 08:19:50;;;;;;;0.50;0.50;;;9.80;99.90;;;;;;4993886;28;20049;-88
2023/01/07 08:22:15;;;;;;;0.60;0.60;;;9.80;99.90;;;;;;4991674;28;20050;-88
2023/01/07 08:24:41;;;;;;;0.43;0.43;;;9.70;99.90;;;;;;4975116;28;20038;-87
2023/01/07 08:27:07;;;;;;;0.52;0.52;;;9.70;99.90;;;;;;4993293;28;20038;-88
2023/01/07 08:29:32;;;;;;;0.45;0.45;;;9.70;99.90;;;;;;4958232;28;20038;-88
2023/01/07 08:31:58;;;;;;;1.63;1.55;;;9.60;99.90;;;;;;4973359;28;20082;-87
2023/01/07 08:34:24;;;;;;;0.55;0.55;;;9.60;99.90;;;;;;4975948;28;21774;-89
2023/01/07 08:36:50;;;;;;;0.45;0.45;;;9.60;99.90;;;;;;4976447;28;20050;-86
2023/01/07 08:39:15;;;;;;;0.75;0.60;;;9.50;99.90;;;;;;4994089;28;20042;-85
2023/01/07 08:41:42;;;;;;;0.55;0.55;;;9.50;99.90;;;;;;5008769;28;20454;-89
2023/01/07 08:44:08;;;;;;;0.50;0.50;;;9.50;99.90;;;;;;5002796;28;20043;-90
2023/01/07 08:46:33;;;;;;;0.50;0.50;;;9.50;99.90;;;;;;4992763;28;20089;-86
2023/01/07 08:48:59;;;;;;;0.60;0.60;;;9.50;99.90;;;;;;4990717;28;20038;-86
2023/01/07 08:51:25;;;;;;;1.08;1.08;;;9.50;99.90;;;;;;4989809;28;20038;-87
2023/01/07 08:53:51;;;;;;;1.17;1.13;;;9.40;99.90;;;;;;4990021;28;20042;-88
2023/01/07 08:56:16;;;;;;;1.92;1.83;;;9.60;99.90;;;;;;4993944;28;20038;-87
2023/01/07 08:58:42;;;;;;;0.43;0.43;;;9.60;99.90;;;;;;4977623;28;20035;-89
2023/01/07 09:01:09;;;;;;;0.60;0.60;;;9.60;99.90;;;;;;4997255;28;20104;-88
2023/01/07 09:03:35;;;;;;;4.18;1.60;;;9.70;99.90;;;;;;4979171;28;20037;-86
2023/01/07 09:06:00;;;;;;;0.70;0.70;;;8.60;99.90;;;;;;4981151;28;20106;-88
2023/01/07 09:08:26;;;;;;;0.60;0.60;;;9.70;99.90;;;;;;4975069;28;21064;-88
2023/01/07 09:10:52;;;;;;;0.40;0.40;;;9.70;99.90;;;;;;4975163;28;20042;-87
2023/01/07 09:13:17;;;;;;;0.50;0.50;;;9.70;99.90;;;;;;4992834;28;20105;-88
2023/01/07 09:15:44;;;;;;;0.40;0.40;;;9.70;99.90;;;;;;4999191;28;20046;-87
2023/01/07 09:18:10;;;;;;;0.40;0.40;;;9.70;99.90;;;;;;4996925;28;20046;-88
2023/01/07 09:20:35;;;;;;;0.70;0.70;;;9.70;99.90;;;;;;4980070;28;20042;-88
2023/01/07 09:23:01;;;;;;;0.40;0.40;;;9.70;99.90;;;;;;4996845;28;20035;-89
2023/01/07 09:25:27;;;;;;;0.50;0.50;;;9.70;99.90;;;;;;4977248;28;20435;-88
2023/01/07 09:27:52;;;;;;;0.70;0.70;;;9.60;99.90;;;;;;4982431;28;20052;-88
2023/01/07 09:30:18;;;;;;;0.65;0.65;;;9.60;99.90;;;;;;5002035;28;20050;-87
2023/01/07 09:32:44;;;;;;;0.45;0.45;;;9.70;99.90;;;;;;5013708;28;20081;-88
2023/01/07 09:35:10;;;;;;;0.43;0.43;;;9.70;99.90;;;;;;4980704;28;20472;-89
2023/01/07 09:37:36;;;;;;;0.57;0.57;;;9.70;99.90;;;;;;5007544;28;20081;-87
2023/01/07 09:40:03;;;;;;;0.93;0.93;;;9.70;99.90;;;;;;4991360;28;20046;-86
2023/01/07 09:43:13;;;;;;;0.85;0.80;;;9.70;99.90;;;;;;4979268;28;20049;-87
2023/01/07 09:45:44;;;;;;;1.35;1.27;;;9.70;99.90;;;;;;4992456;28;20086;-89
2023/01/07 09:48:30;;;;;;;1.40;1.30;;;9.70;99.90;;;;;;5003229;28;20042;-89
2023/01/07 09:51:10;;;;;;;0.63;0.60;;;9.70;99.90;;;;;;4997140;28;20046;-88
2023/01/07 09:53:45;;;;;;;0.40;0.40;;;9.70;99.90;;;;;;5009667;28;20130;-88
2023/01/07 09:56:38;;;;;;;2.72;2.55;;;9.70;99.90;;;;;;4972439;28;20133;-89
2023/01/07 09:59:05;;;;;;;0.65;0.65;;;9.70;99.90;;;;;;4978973;28;20054;-88
2023/01/07 10:01:45;;;;;;;0.47;0.47;;;9.70;99.90;;;;;;4974776;28;20058;-88
2023/01/07 10:04:37;;;;;;;0.60;0.60;;;9.70;99.90;;;;;;5022408;28;20074;-89
2023/01/07 10:07:27;;;;;;;0.35;0.35;;;9.70;99.90;;;;;;4997933;28;20034;-88
2023/01/07 10:09:59;;;;;;;0.40;0.40;;;9.70;99.90;;;;;;4995457;28;20042;-87
2023/01/07 10:12:28;;;;;;;0.40;0.40;;;9.80;99.90;;;;;;4992612;28;20050;-88
2023/01/07 10:15:14;;;;;;;0.80;0.80;;;9.80;99.90;;;;;;5003823;28;20050;-87
2023/01/07 10:18:13;;;;;;;0.40;0.40;;;9.80;99.90;;;;;;4993648;28;20045;-85
2023/01/07 10:21:07;;;;;;;0.98;0.98;;;9.70;99.90;;;;;;4993150;28;20043;-85
2023/01/07 10:23:37;;;;;;;0.45;0.45;;;9.70;99.90;;;;;;4978454;28;20038;-88
2023/01/07 10:26:12;;;;;;;0.40;0.40;;;9.70;99.90;;;;;;4976704;28;20042;-88
2023/01/07 10:28:45;;;;;;;0.50;0.50;;;9.80;99.90;;;;;;4995034;28;20045;-85
2023/01/07 10:31:23;;;;;;;0.60;0.60;;;9.80;99.90;;;;;;4993762;28;20057;-88
2023/01/07 10:33:50;;;;;;;0.55;0.55;;;9.90;99.90;;;;;;4995548;28;20038;-88
2023/01/07 10:36:21;;;;;;;0.35;0.35;;;9.90;99.90;;;;;;4991756;28;20042;-86
2023/01/07 10:39:10;;;;;;;0.73;0.73;;;9.90;99.90;;;;;;4996140;28;20061;-87
2023/01/07 10:41:44;;;;;;;0.40;0.40;;;9.90;99.90;;;;;;4997074;28;20042;-86
2023/01/07 10:44:33;;;;;;;0.50;0.47;;;10.00;99.90;;;;;;4994827;28;20049;-88
2023/01/07 10:47:18;;;;;;;0.60;0.60;;;10.00;99.90;;;;;;4978374;28;21721;-87
2023/01/07 10:50:06;;;;;;;0.55;0.45;;;10.10;99.90;;;;;;4992386;28;20078;-86
2023/01/07 10:52:51;;;;;;;1.48;1.05;;;10.10;99.90;;;;;;4990178;28;20035;-88
2023/01/07 10:55:33;;;;;;;0.40;0.40;;;10.20;99.90;;;;;;4991411;28;20121;-88
2023/01/07 10:57:59;;;;;;;0.40;0.40;;;10.30;99.90;;;;;;4992753;28;20097;-86
2023/01/07 11:00:25;;;;;;;0.40;0.40;;;10.40;99.90;;;;;;5006405;28;20038;-87
2023/01/07 11:02:55;;;;;;;0.40;0.40;;;10.40;99.90;;;;;;4991476;28;20301;-85
2023/01/07 11:05:23;;;;;;;0.35;0.35;;;10.40;99.90;;;;;;4993700;28;20057;-88
2023/01/07 11:07:55;;;;;;;0.40;0.40;;;10.50;99.90;;;;;;4995046;28;20122;-86
2023/01/07 11:10:24;;;;;;;0.30;0.30;;;10.50;99.90;;;;;;4993329;28;20046;-87
2023/01/07 11:12:57;;;;;;;0.40;0.40;;;10.60;99.90;;;;;;4992209;28;20070;-86
2023/01/07 11:15:44;;;;;;;0.40;0.40;;;10.60;99.90;;;;;;4974676;28;20039;-87
2023/01/07 11:18:20;;;;;;;0.32;0.32;;;10.50;99.90;;;;;;4993516;28;20395;-88
2023/01/07 11:20:56;;;;;;;1.00;0.95;;;10.60;99.90;;;;;;4992024;28;20046;-86
2023/01/07 11:23:35;;;;;;;1.25;1.15;;;10.60;99.90;;;;;;5008544;28;20388;-85
2023/01/07 11:26:12;;;;;;;0.75;0.75;;;10.70;99.90;;;;;;4990184;28;20050;-87
2023/01/07 11:28:41;;;;;;;;;;;10.80;99.90;;;;;;4991514;28;20027;-87
2023/01/07 11:31:08;;;;;;;0.40;0.40;;;10.90;99.90;;;;;;5005160;28;19949;-86
2023/01/07 11:33:47;;;;;;;0.68;0.68;;;10.90;99.90;;;;;;4975788;28;20078;-85
2023/01/07 11:36:13;;;;;;;0.30;0.30;;;11.00;99.90;;;;;;4973624;28;20081;-86
2023/01/07 11:38:39;;;;;;;0.60;0.60;;;11.00;99.90;;;;;;4988959;28;20046;-88
2023/01/07 11:41:18;;;;;;;0.55;0.52;;;11.00;99.90;;;;;;4975389;28;20499;-87
2023/01/07 11:43:49;;;;;;;0.20;0.20;;;11.10;99.90;;;;;;4976810;28;20043;-86
2023/01/07 11:46:17;;;;;;;0.40;0.40;;;11.20;99.90;;;;;;4991058;28;20042;-86
2023/01/07 11:48:52;;;;;;;0.40;0.40;;;11.20;99.90;;;;;;4991395;28;20078;-87
2023/01/07 11:51:22;;;;;;;0.30;0.30;;;11.10;99.90;;;;;;4991987;28;20046;-88
2023/01/07 11:53:48;;;;;;;0.30;0.30;;;11.20;99.90;;;;;;4975733;28;20050;-86
2023/01/07 11:56:23;;;;;;;0.50;0.50;;;11.20;99.90;;;;;;4991427;28;20057;-86
2023/01/07 11:59:13;;;;;;;0.50;0.50;;;11.20;99.90;;;;;;4992195;28;20135;-88
2023/01/07 12:01:47;;;;;;;0.30;0.30;;;11.20;99.90;;;;;;4984036;28;20100;-87
2023/01/07 12:04:21;;;;;;;0.20;0.20;;;11.20;99.90;;;;;;4976691;28;20042;-88
2023/01/07 12:06:50;;;;;;;0.40;0.40;;;11.10;99.90;;;;;;4989830;28;20111;-88
2023/01/07 12:09:26;;;;;;;0.30;0.30;;;11.20;99.90;;;;;;5006846;28;20049;-85
2023/01/07 12:11:55;;;;;;;0.45;0.45;;;11.10;99.90;;;;;;4992714;28;20045;-88
2023/01/07 12:14:27;;;;;;;0.40;0.40;;;11.10;99.90;;;;;;4989085;28;20061;-86
2023/01/07 12:16:54;;;;;;;0.30;0.30;;;11.10;99.90;;;;;;4975706;28;20058;-88
2023/01/07 12:19:57;;;;;;;0.50;0.50;;;11.00;99.90;;;;;;4990064;28;20140;-87
2023/01/07 12:22:31;;;;;;;0.30;0.30;;;11.10;99.90;;;;;;4994919;28;20487;-86
2023/01/07 12:25:18;;;;;;;0.55;0.55;;;11.10;99.90;;;;;;4993792;28;20076;-85
2023/01/07 12:27:59;;;;;;;0.40;0.40;;;11.10;99.90;;;;;;5003959;28;20050;-86
2023/01/07 12:30:48;;;;;;;0.50;0.50;;;11.10;99.90;;;;;;4990715;28;20073;-86
2023/01/07 12:33:59;;;;;;;0.40;0.40;;;11.10;99.90;;;;;;5004340;28;20082;-86
2023/01/07 12:36:45;;;;;;;0.25;0.25;;;11.10;99.90;;;;;;4971246;28;20047;-87
2023/01/07 12:39:31;;;;;;;0.32;0.32;;;11.10;99.90;;;;;;4987972;28;20060;-88
2023/01/07 12:42:33;;;;;;;0.65;0.65;;;11.10;99.90;;;;;;4990321;28;20030;-86
2023/01/07 12:45:04;;;;;;;0.40;0.40;;;11.10;99.90;;;;;;4980446;28;20082;-86
2023/01/07 12:47:49;;;;;;;0.65;0.65;;;11.10;99.90;;;;;;4992041;28;20039;-86
2023/01/07 12:50:44;;;;;;;0.40;0.40;;;11.10;99.90;;;;;;4992582;28;20827;-89
2023/01/07 12:53:12;;;;;;;0.30;0.30;;;11.10;99.90;;;;;;4992706;28;20046;-86
2023/01/07 12:55:47;;;;;;;0.32;0.32;;;11.20;99.90;;;;;;4991417;28;20046;-86
2023/01/07 12:58:21;;;;;;;0.40;0.40;;;11.20;99.90;;;;;;4996109;28;20050;-86
2023/01/07 13:00:58;;;;;;;0.30;0.30;;;11.20;99.90;;;;;;4994025;28;20121;-88
2023/01/07 13:03:45;;;;;;;0.30;0.30;;;11.30;99.90;;;;;;5008783;28;20129;-87
2023/01/07 13:06:37;;;;;;;0.40;0.40;;;11.30;99.90;;;;;;4994796;28;20613;-87
2023/01/07 13:09:14;;;;;;;0.35;0.35;;;11.30;99.90;;;;;;4989549;28;20421;-87
2023/01/07 13:14:37;;;;;;;0.40;0.40;;;11.20;99.90;;;;;;4997404;28;20062;-86
2023/01/07 13:17:21;;;;;;;0.55;0.55;;;11.20;99.90;;;;;;5015476;28;20046;-88
2023/01/07 13:19:47;;;;;;;0.35;0.35;;;11.20;99.90;;;;;;4995507;28;20042;-87
2023/01/07 13:22:19;;;;;;;0.30;0.30;;;11.10;99.90;;;;;;4995153;28;20041;-87